• Join FlightAware (Why Join?)
  • Login
  • US Flag 
02:40AM EDT


 

Airport Tracker/Info


-or-


 

Live Flight TrackerFlight Track Log ✈ SWA1533 ✈ 20-Feb-2014 ✈ KTPA - KCMH

Flight Track Log - Related Links

Times and Time Zones

All times are in EST time to prevent confusion due to time zone crossing. See the SWA1533 flight status page for this flight to view local times or setup timezone preferences in your user account.

Time Position Orientation Groundspeed Altitude Reporting Facility
EST Latitude Longitude Course Direction KTS MPH feet Rate Location/Type
01:37PM 27.9667 -82.5500 180° South 166 191 500  Level Tampa TRACON
01:37PM 27.9333 -82.5500 180° South 194 223 2,500 3,780 Climbing Tampa TRACON
01:38PM 27.9000 -82.5833 221° Southwest 215 247 6,700 3,840 Climbing Tampa TRACON
01:39PM 27.9500 -82.6167 330° Northwest 309 356 10,200 2,820 Climbing Tampa TRACON
01:42PM 28.1706 -82.5958 North 363 418 16,100 3,000 Climbing Jacksonville Center
01:43PM 28.2811 -82.5886 North 380 437 19,700 2,460 Climbing Jacksonville Center
01:44PM 28.3958 -82.5833 North 399 459 21,000 720 Climbing Jacksonville Center
01:45PM 28.5086 -82.5856 359° North 404 465 21,200 1,440 Climbing Jacksonville Center
01:46PM 28.6253 -82.5897 358° North 404 465 23,900 1,380 Climbing Jacksonville Center
01:47PM 28.7319 -82.5967 357° North 409 471 24,000 1,020 Climbing Jacksonville Center
01:48PM 28.8486 -82.6128 353° North 416 479 26,000 1,620 Climbing Jacksonville Center
01:49PM 28.9697 -82.6292 353° North 428 493 27,300 1,680 Climbing Jacksonville Center
01:50PM 29.0931 -82.6478 352° North 435 501 29,400 2,160 Climbing Jacksonville Center
01:51PM 29.2372 -82.6664 354° North 458 527 31,700 2,280 Climbing Jacksonville Center
01:52PM 29.3667 -82.6853 353° North 466 536 34,000 1,140 Climbing Jacksonville Center
01:53PM 29.4961 -82.6922 357° North 466 536 34,000 600 Level Jacksonville Center
01:54PM 29.6169 -82.6967 358° North 472 543 35,200 1,800 Climbing Jacksonville Center
01:55PM 29.7464 -82.6844 North 466 536 37,600 1,380 Climbing Jacksonville Center
01:56PM 29.8717 -82.6722 North 461 531 38,000 540 Climbing Jacksonville Center
01:57PM 30.0011 -82.6600 North 461 531 38,700 1,140 Climbing Jacksonville Center
01:58PM 30.1139 -82.6453 North 461 531 40,300 1,140 Climbing Jacksonville Center
01:59PM 30.2475 -82.6328 North 444 511 41,000 300 Climbing Jacksonville Center
02:00PM 30.3747 -82.6228 North 445 512 41,000  Level Jacksonville Center
02:01PM 30.5000 -82.6106 North 445 512 41,000  Level Jacksonville Center
02:02PM 30.6211 -82.6006 North 439 505 41,000  Level Jacksonville Center
02:03PM 30.7442 -82.5881 North 439 505 41,000  Level Jacksonville Center
02:04PM 30.8717 -82.5756 North 439 505 41,000  Level Jacksonville Center
02:05PM 30.9947 -82.5631 North 439 505 41,000  Level Jacksonville Center
02:06PM 31.1181 -82.5528 North 444 511 41,000  Level Jacksonville Center
02:07PM 31.2433 -82.5403 North 444 511 41,000  Level Jacksonville Center
02:08PM 31.3683 -82.5228 North 444 511 41,000  Level Jacksonville Center
02:09PM 31.4936 -82.5100 North 444 511 41,000  Level Jacksonville Center
02:10PM 31.6167 -82.4925 North 444 511 41,000  Level Jacksonville Center
02:11PM 31.8450 -82.4619 North 461 531 41,000  Level Atlanta Center
02:12PM 31.9681 -82.4425 North 455 524 41,000  Level Atlanta Center
02:13PM 32.0908 -82.4233 North 449 517 41,000  Level Atlanta Center
02:14PM 32.2136 -82.4014 North 443 510 41,000  Level Atlanta Center
02:15PM 32.3200 -82.3847 North 443 510 41,000  Level Atlanta Center
02:16PM 32.4428 -82.3653 North 443 510 41,000  Level Atlanta Center
02:17PM 32.5678 -82.3456 North 443 510 41,000  Level Atlanta Center
02:18PM 32.6906 -82.3258 North 443 510 41,000  Level Atlanta Center
02:19PM 32.8136 -82.3061 North 443 510 41,000  Level Atlanta Center
02:20PM 32.9531 -82.2836 North 448 516 41,000  Level Atlanta Center
02:21PM 33.0758 -82.2664 North 448 516 41,000  Level Atlanta Center
02:22PM 33.2008 -82.2439 North 443 510 41,000  Level Atlanta Center
02:23PM 33.3236 -82.2239 North 443 510 41,000  Level Atlanta Center
02:24PM 33.4508 -82.2014 North 443 510 41,000  Level Atlanta Center
02:25PM 33.5736 -82.1814 North 443 510 41,000  Level Atlanta Center
02:26PM 33.6983 -82.1586 North 443 510 41,000  Level Atlanta Center
02:27PM 33.8214 -82.1408 North 443 510 41,000  Level Atlanta Center
02:28PM 33.9336 -82.1208 North 448 516 41,000  Level Atlanta Center
02:29PM 34.0522 -82.1006 North 441 507 41,000  Level Atlanta Center
02:30PM 34.1753 -82.0803 North 441 507 41,000  Level Atlanta Center
02:31PM 34.2958 -82.0575 North 441 507 41,000  Level Atlanta Center
02:32PM 34.4208 -82.0369 North 446 513 41,000  Level Atlanta Center
02:33PM 34.5414 -82.0164 North 441 507 41,000  Level Atlanta Center
02:34PM 34.6642 -81.9933 North 446 513 41,000  Level Atlanta Center
02:35PM 34.7892 -81.9725 North 446 513 41,000  Level Atlanta Center
02:36PM 34.9097 -81.9492 North 441 507 41,000  Level Atlanta Center
02:37PM 35.0347 -81.9333 North 441 507 41,000  Level Atlanta Center
02:38PM 35.1575 -81.9250 North 441 507 41,000  Level Atlanta Center
02:39PM 35.2828 -81.9219 North 441 507 41,000  Level Atlanta Center
02:40PM 35.4058 -81.9136 North 441 507 41,000  Level Atlanta Center
02:41PM 35.5286 -81.9106 North 441 507 41,000  Level Atlanta Center
02:42PM 35.6517 -81.9022 North 441 507 41,000  Level Atlanta Center
02:43PM 35.7767 -81.8989 North 441 507 41,000  Level Atlanta Center
02:44PM 35.8975 -81.8906 North 441 507 41,000  Level Atlanta Center
02:45PM 36.0228 -81.8847 North 441 507 41,000  Level Atlanta Center
02:46PM 36.1456 -81.8789 North 441 507 41,000 -300 Level Atlanta Center
02:49PM 36.4517 -81.8617 North 442 509 40,100 -600 Descending Indianapolis Center
02:50PM 36.5967 -81.8542 North 442 509 39,000 -1,020 Descending Indianapolis Center
02:51PM 36.7247 -81.8486 North 453 521 38,100 -1,320 Descending Indianapolis Center
02:52PM 36.8511 -81.8597 356° North 456 525 36,300 -1,020 Descending Indianapolis Center
02:53PM 36.9731 -81.8794 353° North 449 517 36,000 -360 Descending Indianapolis Center
02:54PM 37.0978 -81.9017 352° North 448 516 35,600 -1,020 Descending Indianapolis Center
02:55PM 37.2436 -81.9269 352° North 450 518 34,000 -1,140 Descending Indianapolis Center
02:56PM 37.3711 -81.9375 356° North 457 526 33,300 -780 Descending Indianapolis Center
02:57PM 37.5003 -81.9497 356° North 461 531 32,400 -960 Descending Indianapolis Center
02:58PM 37.6300 -81.9636 355° North 464 534 31,400 -720 Descending Indianapolis Center
02:59PM 37.7583 -81.9761 356° North 464 534 31,000 -240 Descending Indianapolis Center
03:00PM 37.8831 -81.9881 356° North 462 532 31,000  Level Indianapolis Center
03:01PM 38.0369 -82.0033 356° North 462 532 31,000 -540 Level Indianapolis Center
03:02PM 38.1642 -82.0144 356° North 460 529 30,000 -1,020 Descending Indianapolis Center
03:03PM 38.2881 -82.0269 355° North 450 518 29,000 -1,020 Descending Indianapolis Center
03:04PM 38.4111 -82.0400 355° North 445 512 28,000 -1,020 Descending Indianapolis Center
03:05PM 38.5328 -82.0514 356° North 439 505 27,000 -1,020 Descending Indianapolis Center
03:06PM 38.6514 -82.0639 355° North 427 491 25,900 -1,020 Descending Indianapolis Center
03:08PM 38.7681 -82.0747 356° North 421 484 24,900 -960 Descending Indianapolis Center
03:09PM 38.8822 -82.0869 355° North 414 476 24,000 -480 Descending Indianapolis Center
03:10PM 39.0092 -82.1267 346° North 396 456 24,000 -780 Level Indianapolis Center
03:11PM 39.1094 -82.1667 343° North 383 441 22,500 -1,920 Descending Indianapolis Center
03:12PM 39.2072 -82.2053 343° North 372 428 20,100 -2,400 Descending Indianapolis Center
03:13PM 39.3022 -82.2436 343° North 361 415 17,500 -2,580 Descending Indianapolis Center
03:13PM 39.3114 -82.2492 335° Northwest 353 406 17,400 -2,640 Descending Indianapolis Center
03:13PM 39.3597 -82.2700 342° North 350 403 16,100 -2,280 Descending Indianapolis Center
03:14PM 39.3956 -82.2803 348° North 355 409 15,100 -2,460 Descending Indianapolis Center
03:14PM 39.4531 -82.3056 341° North 347 399 13,600 -2,640 Descending Indianapolis Center
03:15PM 39.5033 -82.3206 347° North 351 404 12,400 -2,100 Descending Indianapolis Center
03:15PM 39.5447 -82.3383 342° North 344 396 11,500 -1,680 Descending Indianapolis Center
03:16PM 39.5928 -82.3536 346° North 341 392 10,700 -1,200 Descending Indianapolis Center
03:16PM 39.6300 -82.3700 341° North 309 356 10,300 -1,380 Descending Indianapolis Center
03:17PM 39.6728 -82.3822 348° North 312 359 9,300 -1,620 Descending Indianapolis Center
03:17PM 39.7092 -82.3983 341° North 295 339 8,700 -1,680 Descending Indianapolis Center
03:18PM 39.7503 -82.4108 347° North 296 341 7,600 -2,220 Descending Indianapolis Center
03:18PM 39.7908 -82.4244 346° North 282 325 6,500 -2,040 Descending Indianapolis Center
03:19PM 39.8244 -82.4333 349° North 282 325 5,500 -1,380 Descending Indianapolis Center
03:19PM 39.8594 -82.4567 333° Northwest 251 289 5,100 -540 Descending Indianapolis Center
03:20PM 39.8833 -82.4764 328° Northwest 252 290 5,000  Descending Indianapolis Center
03:20PM 39.9092 -82.5078 317° Northwest 220 253 5,100 -120 Climbing Indianapolis Center
03:21PM 39.9400 -82.5403 321° Northwest 230 265 4,900 -900 Descending Indianapolis Center
03:21PM 39.9547 -82.5611 313° West 220 253 4,200 -1,860 Descending Indianapolis Center
03:22PM 39.9739 -82.6017 302° West 226 260 3,000 -1,140 Descending Indianapolis Center
03:22PM 39.9739 -82.6269 270° West 202 232 3,100  Climbing Indianapolis Center
03:23PM 39.9817 -82.6694 283° West 206 237 3,000  Descending Indianapolis Center
03:23PM 39.9817 -82.7019 270° West 201 231 3,100 -120 Climbing Indianapolis Center
03:24PM 39.9836 -82.7358 274° West 193 222 2,900 -540 Descending Indianapolis Center
03:24PM 39.9844 -82.7625 272° West 160 184 2,600 -780 Descending Indianapolis Center
03:25PM 39.9875 -82.7903 278° West 172 198 2,100 -720 Descending Indianapolis Center
03:25PM 39.9883 -82.8122 273° West 128 147 1,900 -540 Descending Indianapolis Center
03:26PM 39.9903 -82.8408 275° West 152 175 1,600 -720 Descending Indianapolis Center
03:26PM 39.9900 -82.8589 269° West 129 148 1,200 -1,500 Descending Indianapolis Center
03:28PM 39.9833 -82.8833 270° West  Level FlightAware Approximate
03:35PM 39.9969 -82.8922 270° West  Level Estimated